Time;durP1;ratioP1;P1;durP2;ratioP2;P2;SDS_P1;SDS_P2;PMS_P1;PMS_P2;Temp;Humidity;BMP_temperature;BMP_pressure;BME280_temperature;BME280_humidity;BME280_pressure;Samples;Min_cycle;Max_cycle;Signal;HPM_P1;HPM_P2
2021/12/10 00:02:02;;;;;;;;;;;;;;;17.87;66.85;100110.41;5047431;28;1777;-42
2021/12/10 00:04:31;;;;;;;;;;;;;;;17.86;67.35;100114.88;5044055;28;1838;-42
2021/12/10 00:07:10;;;;;;;;;;;;;;;17.89;67.03;100125.31;5043947;28;1766;-42
2021/12/10 00:09:47;;;;;;;;;;;;;;;17.93;67.33;100130.38;5049841;28;1682;-42
2021/12/10 00:12:16;;;;;;;;;;;;;;;17.87;67.41;100127.28;5054792;28;2062;-42
2021/12/10 00:14:43;;;;;;;;;;;;;;;17.87;67.56;100126.44;5046690;28;1000;-42
2021/12/10 00:17:16;;;;;;;;;;;;;;;17.83;67.23;100130.38;5037139;28;2157;-42
2021/12/10 00:19:49;;;;;;;;;;;;;;;17.89;67.45;100135.16;5047792;28;2192;-42
2021/12/10 00:22:32;;;;;;;;;;;;;;;17.81;67.53;100140.38;5048041;28;1993;-43
2021/12/10 00:25:07;;;;;;;;;;;;;;;17.82;67.64;100145.53;5038925;28;1572;-42
2021/12/10 00:27:37;;;;;;;;;;;;;;;17.86;67.29;100130.09;5054228;28;1952;-42
2021/12/10 00:30:09;;;;;;;;;;;;;;;17.81;67.30;100135.00;5054608;28;2145;-42
2021/12/10 00:32:40;;;;;;;;;;;;;;;17.84;67.31;100132.91;5047536;28;1953;-42
2021/12/10 00:35:09;;;;;;;;;;;;;;;17.81;67.18;100122.47;5046758;28;1062;-42
2021/12/10 00:37:38;;;;;;;;;;;;;;;17.77;67.52;100121.09;5048333;28;1052;-42
2021/12/10 00:40:11;;;;;;;;;;;;;;;17.79;67.55;100121.78;5042411;28;1981;-42
2021/12/10 00:42:40;;;;;;;;;;;;;;;17.77;67.30;100121.09;5053738;28;1906;-42
2021/12/10 00:45:12;;;;;;;;;;;;;;;17.78;67.74;100120.06;5028666;28;1842;-42
2021/12/10 00:48:02;;;;;;;;;;;;;;;17.77;67.67;100112.22;5049777;28;1685;-42
2021/12/10 00:50:30;;;;;;;;;;;;;;;17.75;67.14;100100.81;5028350;28;1667;-42
2021/12/10 00:52:58;;;;;;;;;;;;;;;17.77;67.20;100099.69;5044978;28;1911;-42
2021/12/10 00:55:30;;;;;;;;;;;;;;;17.74;67.44;100089.25;5039840;28;1782;-42
2021/12/10 00:57:58;;;;;;;;;;;;;;;17.69;67.62;100088.88;5048531;28;1737;-42
2021/12/10 01:00:28;;;;;;;;;;;;;;;17.70;67.59;100102.06;5045910;28;1814;-42
2021/12/10 01:02:56;;;;;;;;;;;;;;;17.65;67.75;100090.16;5043678;28;1663;-42
2021/12/10 01:05:24;;;;;;;;;;;;;;;17.71;67.85;100089.56;5044456;28;1829;-42
2021/12/10 01:07:51;;;;;;;;;;;;;;;17.69;67.72;100112.94;5049948;28;1645;-42
2021/12/10 01:10:26;;;;;;;;;;;;;;;17.66;67.91;100091.81;5039994;28;1565;-42
2021/12/10 01:12:58;;;;;;;;;;;;;;;17.66;67.70;100075.78;5051826;28;2102;-42
2021/12/10 01:24:18;;;;;;;;;;;;;;;17.69;67.52;100075.50;4981935;28;2156;-42
2021/12/10 01:26:59;;;;;;;;;;;;;;;17.69;67.50;100073.66;4973447;28;1256;-42
2021/12/10 01:29:37;;;;;;;;;;;;;;;17.67;67.58;100072.13;4981777;28;1769;-42
2021/12/10 01:32:08;;;;;;;;;;;;;;;17.69;67.42;100057.63;5006002;28;2301;-42
2021/12/10 01:34:42;;;;;;;;;;;;;;;17.64;67.78;100073.22;5043754;28;1745;-42
2021/12/10 01:37:12;;;;;;;;;;;;;;;17.63;67.59;100054.69;5041700;28;1613;-42
2021/12/10 01:39:39;;;;;;;;;;;;;;;17.65;67.94;100050.03;5046042;28;1787;-42
2021/12/10 01:42:31;;;;;;;;;;;;;;;17.64;67.57;100051.84;5034740;28;1054;-42
2021/12/10 01:45:03;;;;;;;;;;;;;;;17.63;67.50;100034.13;5046415;28;1789;-42
2021/12/10 01:47:32;;;;;;;;;;;;;;;17.65;67.81;100045.53;5040938;28;1757;-43
2021/12/10 01:50:02;;;;;;;;;;;;;;;17.61;67.83;100036.09;5044946;28;1088;-42
2021/12/10 01:52:32;;;;;;;;;;;;;;;17.67;67.61;100035.53;5044077;28;1980;-42
2021/12/10 01:55:01;;;;;;;;;;;;;;;17.60;68.12;100034.41;5048687;28;1748;-42
2021/12/10 01:57:31;;;;;;;;;;;;;;;17.63;67.21;100020.75;5053007;28;1848;-42
2021/12/10 02:00:02;;;;;;;;;;;;;;;17.66;67.63;100023.13;5037788;28;1557;-42
2021/12/10 02:02:30;;;;;;;;;;;;;;;17.64;67.42;100011.75;5035749;28;1801;-43
2021/12/10 02:04:57;;;;;;;;;;;;;;;17.68;67.41;100010.47;5043391;28;1285;-42
2021/12/10 02:07:36;;;;;;;;;;;;;;;17.67;67.86;99999.94;5045003;28;1884;-42
2021/12/10 02:10:15;;;;;;;;;;;;;;;17.65;67.68;100000.06;5040447;28;1928;-42
2021/12/10 02:12:42;;;;;;;;;;;;;;;17.63;67.59;100002.03;5034954;28;1902;-42
2021/12/10 02:15:16;;;;;;;;;;;;;;;17.64;67.51;99997.53;5048422;28;1737;-42
2021/12/10 02:17:45;;;;;;;;;;;;;;;17.63;67.59;100002.03;5051977;28;1762;-42
2021/12/10 02:20:21;;;;;;;;;;;;;;;17.60;67.76;100014.84;5044514;28;1594;-42
2021/12/10 02:22:49;;;;;;;;;;;;;;;17.62;67.56;99996.84;5049215;28;1000;-42
2021/12/10 02:25:17;;;;;;;;;;;;;;;17.61;68.00;99992.50;5039621;28;1059;-42
2021/12/10 02:27:43;;;;;;;;;;;;;;;17.58;67.87;99998.13;5037018;28;2042;-42
2021/12/10 02:30:15;;;;;;;;;;;;;;;17.58;67.55;100009.66;5037786;28;1551;-42
2021/12/10 02:32:45;;;;;;;;;;;;;;;17.62;67.72;100007.53;5038411;28;1979;-42
2021/12/10 02:35:15;;;;;;;;;;;;;;;17.59;67.70;100003.31;5044934;28;1973;-42
2021/12/10 02:37:43;;;;;;;;;;;;;;;17.62;67.82;99994.16;5043875;28;1067;-42
2021/12/10 02:40:15;;;;;;;;;;;;;;;17.64;67.52;99989.50;5035931;28;1645;-42
2021/12/10 02:42:41;;;;;;;;;;;;;;;17.56;67.64;99989.41;5035856;28;1647;-42
2021/12/10 02:45:11;;;;;;;;;;;;;;;17.62;67.64;99992.31;5047120;28;1671;-42
2021/12/10 02:47:38;;;;;;;;;;;;;;;17.59;67.48;99976.59;5037758;28;1488;-42
2021/12/10 02:50:05;;;;;;;;;;;;;;;17.59;67.73;99983.78;5040028;28;1532;-42
2021/12/10 02:52:31;;;;;;;;;;;;;;;17.60;67.46;99993.47;5044446;28;1909;-42
2021/12/10 02:54:59;;;;;;;;;;;;;;;17.62;67.38;99978.13;5038214;28;1747;-42
2021/12/10 02:57:31;;;;;;;;;;;;;;;17.59;67.37;99978.44;5050580;28;2003;-42
2021/12/10 02:59:57;;;;;;;;;;;;;;;17.66;67.40;99966.16;5049081;28;1066;-42
2021/12/10 03:02:25;;;;;;;;;;;;;;;17.67;67.22;99957.16;5143458;23;3490;-40
2021/12/10 03:04:53;;;;;;;;;;;;;;;17.68;67.32;99956.16;5038998;28;2032;-42
2021/12/10 03:07:30;;;;;;;;;;;;;;;17.61;67.36;99960.41;5044039;28;1589;-42
2021/12/10 03:09:58;;;;;;;;;;;;;;;17.62;67.23;99946.03;5041516;28;1605;-42
2021/12/10 03:12:25;;;;;;;;;;;;;;;17.63;67.42;99950.41;5044367;28;2242;-42
2021/12/10 03:14:55;;;;;;;;;;;;;;;17.59;67.31;99941.00;5043141;28;1969;-42
2021/12/10 03:17:23;;;;;;;;;;;;;;;17.65;67.27;99951.13;4991080;28;1081;-42
2021/12/10 03:20:13;;;;;;;;;;;;;;;17.63;67.63;99945.06;5039160;28;1570;-42
2021/12/10 03:22:41;;;;;;;;;;;;;;;17.58;67.33;99936.63;5039369;28;1607;-42
2021/12/10 03:25:11;;;;;;;;;;;;;;;17.55;67.06;99955.63;5038752;28;1653;-42
2021/12/10 03:27:38;;;;;;;;;;;;;;;17.55;67.44;99943.13;5049140;28;2229;-42
2021/12/10 03:30:19;;;;;;;;;;;;;;;17.62;67.45;99954.06;5041666;28;1964;-42
2021/12/10 03:32:46;;;;;;;;;;;;;;;17.61;67.59;99947.03;5040965;28;1910;-42
2021/12/10 03:35:17;;;;;;;;;;;;;;;17.59;67.39;99938.34;5031393;28;1557;-42
2021/12/10 03:37:45;;;;;;;;;;;;;;;17.62;67.38;99930.00;5039696;28;1106;-42
2021/12/10 03:40:13;;;;;;;;;;;;;;;17.57;67.86;99929.63;5041586;28;1903;-42
2021/12/10 03:45:22;;;;;;;;;;;;;;;17.53;67.69;99944.22;5041463;28;2356;-42
2021/12/10 03:47:52;;;;;;;;;;;;;;;17.58;67.23;99956.19;5045808;28;1499;-42
2021/12/10 03:50:24;;;;;;;;;;;;;;;17.55;67.77;99964.50;5040648;28;1502;-43
2021/12/10 03:52:51;;;;;;;;;;;;;;;17.53;67.42;99952.25;5044335;28;1975;-42
2021/12/10 03:55:18;;;;;;;;;;;;;;;17.55;67.50;99947.59;5043671;28;1011;-42
2021/12/10 03:57:45;;;;;;;;;;;;;;;17.55;67.62;99945.78;5051761;28;1807;-42
2021/12/10 04:00:14;;;;;;;;;;;;;;;17.58;67.41;99936.63;5043613;28;1566;-42
2021/12/10 04:02:56;;;;;;;;;;;;;;;17.58;67.50;99933.97;5047286;28;1999;-42
2021/12/10 04:05:36;;;;;;;;;;;;;;;17.61;67.23;99920.31;5052321;28;1498;-42
2021/12/10 04:08:02;;;;;;;;;;;;;;;17.60;67.36;99932.81;5048114;28;1535;-42
2021/12/10 04:10:32;;;;;;;;;;;;;;;17.60;67.62;99923.97;5049899;28;1079;-42
2021/12/10 04:12:59;;;;;;;;;;;;;;;17.56;67.38;99919.91;5051202;28;2009;-42
2021/12/10 04:15:28;;;;;;;;;;;;;;;17.59;67.52;99922.28;5037683;28;1498;-42
2021/12/10 04:17:55;;;;;;;;;;;;;;;17.59;67.40;99931.16;5016520;28;1683;-42
2021/12/10 04:20:24;;;;;;;;;;;;;;;17.60;67.34;99926.63;5050325;28;2017;-42
2021/12/10 04:23:05;;;;;;;;;;;;;;;17.57;67.27;99921.59;5037115;28;1069;-42
2021/12/10 04:25:35;;;;;;;;;;;;;;;17.57;67.21;99922.44;5047806;28;991;-42
2021/12/10 04:28:07;;;;;;;;;;;;;;;17.59;67.59;99935.66;5040111;28;1806;-42
2021/12/10 04:30:42;;;;;;;;;;;;;;;17.57;67.21;99934.97;5046726;28;1851;-42
2021/12/10 04:33:10;;;;;;;;;;;;;;;17.55;67.41;99931.56;5050092;28;1977;-42
2021/12/10 04:35:39;;;;;;;;;;;;;;;17.61;67.25;99945.22;5045891;28;1676;-42
2021/12/10 04:38:13;;;;;;;;;;;;;;;17.58;67.27;99939.31;5039132;28;1681;-42
2021/12/10 04:43:23;;;;;;;;;;;;;;;17.55;67.17;99929.75;5042376;28;2445;-42
2021/12/10 04:45:58;;;;;;;;;;;;;;;17.58;67.17;99928.63;5048723;28;1660;-42
2021/12/10 04:48:45;;;;;;;;;;;;;;;17.56;67.34;99919.91;5039582;28;1775;-42
2021/12/10 04:51:17;;;;;;;;;;;;;;;17.58;67.33;99939.31;5034087;28;1774;-42
2021/12/10 04:53:49;;;;;;;;;;;;;;;17.60;67.17;99940.00;5040123;28;1906;-42
2021/12/10 04:56:18;;;;;;;;;;;;;;;17.59;67.39;99935.66;5043722;28;1074;-42
2021/12/10 04:58:49;;;;;;;;;;;;;;;17.58;67.39;99925.94;5038453;28;1816;-42
2021/12/10 05:01:16;;;;;;;;;;;;;;;17.53;67.28;99929.06;5047087;28;1805;-42
2021/12/10 05:03:42;;;;;;;;;;;;;;;17.56;67.65;99938.59;5038146;28;1752;-42
2021/12/10 05:06:12;;;;;;;;;;;;;;;17.55;67.46;99942.25;5046177;28;1789;-42
2021/12/10 05:08:49;;;;;;;;;;;;;;;17.61;67.20;99914.97;5052296;28;1564;-42
2021/12/10 05:11:17;;;;;;;;;;;;;;;17.62;67.17;99930.00;5034207;28;1062;-42
2021/12/10 05:13:53;;;;;;;;;;;;;;;17.59;67.21;99924.97;5045137;28;1906;-42
2021/12/10 05:16:28;;;;;;;;;;;;;;;17.61;67.03;99933.69;5052645;28;1625;-43
2021/12/10 05:18:59;;;;;;;;;;;;;;;17.59;67.26;99936.50;5048191;28;1668;-42
2021/12/10 05:21:26;;;;;;;;;;;;;;;17.57;67.19;99937.63;5044403;28;1863;-42
2021/12/10 05:24:00;;;;;;;;;;;;;;;17.56;67.47;99938.59;5037031;28;1749;-43
2021/12/10 05:26:32;;;;;;;;;;;;;;;17.57;67.65;99953.69;5045683;28;1170;-42
2021/12/10 05:28:59;;;;;;;;;;;;;;;17.58;67.24;99955.34;5051982;28;1608;-44
2021/12/10 05:31:29;;;;;;;;;;;;;;;17.59;67.19;99976.59;5051829;28;2000;-42
2021/12/10 05:33:57;;;;;;;;;;;;;;;17.60;67.19;99958.72;5038695;28;1910;-42
2021/12/10 05:36:27;;;;;;;;;;;;;;;17.65;67.05;99967.16;5037478;28;1591;-42
2021/12/10 05:38:57;;;;;;;;;;;;;;;17.76;66.55;99964.28;5042057;28;1523;-42
2021/12/10 05:41:26;;;;;;;;;;;;;;;17.77;66.49;99960.63;5043745;28;1605;-42
2021/12/10 05:43:57;;;;;;;;;;;;;;;17.70;66.64;99979.06;5046426;28;1650;-42
2021/12/10 05:46:24;;;;;;;;;;;;;;;17.68;66.65;99972.19;5047795;28;1442;-43
2021/12/10 05:48:54;;;;;;;;;;;;;;;17.70;66.92;99971.03;5046608;28;1312;-42
2021/12/10 05:51:24;;;;;;;;;;;;;;;17.70;66.96;99967.53;5045393;28;1785;-42
2021/12/10 05:53:58;;;;;;;;;;;;;;;17.62;66.99;99956.75;5041424;28;1914;-42
2021/12/10 05:56:28;;;;;;;;;;;;;;;17.69;66.98;99974.72;5041481;28;1494;-42
2021/12/10 05:59:06;;;;;;;;;;;;;;;17.69;67.23;99968.53;5047885;28;1613;-42
2021/12/10 06:01:36;;;;;;;;;;;;;;;17.62;67.44;99957.56;5039895;28;1601;-42
2021/12/10 06:04:09;;;;;;;;;;;;;;;17.74;66.75;99974.28;5044325;28;1594;-42
2021/12/10 06:06:56;;;;;;;;;;;;;;;17.66;67.00;99983.03;5041268;28;1916;-42
2021/12/10 06:09:30;;;;;;;;;;;;;;;17.61;67.02;99984.47;5040955;28;2057;-42
2021/12/10 06:11:57;;;;;;;;;;;;;;;17.76;66.70;99998.22;5046966;28;1130;-42
2021/12/10 06:14:28;;;;;;;;;;;;;;;17.62;67.42;99999.50;5042815;28;1965;-42
2021/12/10 06:16:54;;;;;;;;;;;;;;;17.92;66.16;100013.66;5040505;28;1806;-42
2021/12/10 06:19:24;;;;;;;;;;;;;;;17.92;66.57;100024.38;5035380;28;1935;-42
2021/12/10 06:21:51;;;;;;;;;;;;;;;17.79;66.42;100030.84;5028785;28;1681;-42
2021/12/10 06:24:19;;;;;;;;;;;;;;;17.72;66.97;100043.09;5050290;28;1777;-42
2021/12/10 06:26:45;;;;;;;;;;;;;;;17.72;66.90;100048.44;5035730;28;1059;-42
2021/12/10 06:29:12;;;;;;;;;;;;;;;17.68;66.77;100047.91;5036909;28;1767;-42
2021/12/10 06:31:41;;;;;;;;;;;;;;;17.70;66.92;100061.13;5037411;28;1677;-42
2021/12/10 06:34:12;;;;;;;;;;;;;;;17.68;66.85;100057.75;5050845;28;1910;-42
2021/12/10 06:36:59;;;;;;;;;;;;;;;17.67;66.67;100056.09;5048342;28;1800;-42
2021/12/10 06:39:26;;;;;;;;;;;;;;;17.67;66.92;100061.44;5035642;28;1734;-42
2021/12/10 06:41:53;;;;;;;;;;;;;;;17.67;66.61;100056.91;5032435;28;1135;-42
2021/12/10 06:44:22;;;;;;;;;;;;;;;17.66;66.75;100059.72;5048216;28;1995;-42
2021/12/10 06:46:54;;;;;;;;;;;;;;;17.70;66.96;100063.78;5043557;28;1747;-42
2021/12/10 06:49:20;;;;;;;;;;;;;;;17.70;66.64;100079.84;5043734;28;1854;-43
2021/12/10 06:51:49;;;;;;;;;;;;;;;17.72;66.39;100058.31;5034915;28;1783;-42
2021/12/10 06:54:26;;;;;;;;;;;;;;;17.75;66.30;100061.56;5037749;28;1898;-42
2021/12/10 06:56:53;;;;;;;;;;;;;;;17.69;66.56;100059.47;5052438;28;1083;-42
2021/12/10 06:59:24;;;;;;;;;;;;;;;17.73;66.32;100092.94;5033564;28;1646;-42
2021/12/10 07:01:57;;;;;;;;;;;;;;;17.72;66.45;100071.69;5040731;28;1747;-42
2021/12/10 07:04:25;;;;;;;;;;;;;;;17.68;66.57;100073.78;5045946;28;1937;-42
2021/12/10 07:06:55;;;;;;;;;;;;;;;17.67;66.65;100066.78;5021832;28;1838;-42
2021/12/10 07:09:44;;;;;;;;;;;;;;;17.72;66.84;100075.19;5047742;28;1958;-42
2021/12/10 07:12:17;;;;;;;;;;;;;;;17.72;66.42;100072.53;5031521;28;1625;-42
2021/12/10 07:14:47;;;;;;;;;;;;;;;17.87;66.54;100072.94;5032166;28;1902;-42
2021/12/10 07:17:18;;;;;;;;;;;;;;;17.72;67.01;100064.50;5045873;28;1593;-42
2021/12/10 07:19:45;;;;;;;;;;;;;;;17.74;67.26;100083.91;5047403;28;1610;-42
2021/12/10 07:22:14;;;;;;;;;;;;;;;17.93;66.40;100082.22;5046393;28;1756;-42
2021/12/10 07:24:42;;;;;;;;;;;;;;;17.73;67.09;100090.25;5039671;28;1780;-42
2021/12/10 07:27:11;;;;;;;;;;;;;;;17.87;66.75;100099.69;5059776;28;2139;-43
2021/12/10 07:29:59;;;;;;;;;;;;;;;17.78;67.00;100105.88;5049878;28;1923;-43
2021/12/10 07:32:28;;;;;;;;;;;;;;;17.73;66.59;100100.13;5049097;28;1046;-43
2021/12/10 07:34:56;;;;;;;;;;;;;;;17.73;67.04;100103.63;5042453;28;1914;-43
2021/12/10 07:37:24;;;;;;;;;;;;;;;17.74;66.97;100110.66;5050672;28;1749;-43
2021/12/10 07:40:08;;;;;;;;;;;;;;;17.76;67.21;100108.69;5053347;28;1942;-43
2021/12/10 07:42:37;;;;;;;;;;;;;;;17.81;66.71;100110.94;5045922;28;2047;-43
2021/12/10 07:45:06;;;;;;;;;;;;;;;17.97;66.27;100124.59;5048711;28;1702;-43
2021/12/10 07:47:36;;;;;;;;;;;;;;;17.92;66.40;100109.97;5048109;28;2224;-43
2021/12/10 07:50:04;;;;;;;;;;;;;;;17.76;67.28;100124.72;5053509;28;1249;-43
2021/12/10 07:52:34;;;;;;;;;;;;;;;17.73;67.50;100127.69;5038986;28;1832;-42
2021/12/10 07:55:01;;;;;;;;;;;;;;;17.82;67.23;100129.50;5046140;28;1902;-43
2021/12/10 07:57:29;;;;;;;;;;;;;;;17.82;67.19;100129.50;5052794;28;1884;-42
2021/12/10 07:59:56;;;;;;;;;;;;;;;17.76;67.15;100124.72;5052849;28;1632;-42
2021/12/10 08:02:24;;;;;;;;;;;;;;;17.76;67.20;100142.63;5042949;28;1408;-42
2021/12/10 08:04:54;;;;;;;;;;;;;;;17.76;67.12;100148.78;5038027;28;2131;-42
2021/12/10 08:07:25;;;;;;;;;;;;;;;17.72;67.51;100149.22;5046703;28;1800;-42
2021/12/10 08:09:51;;;;;;;;;;;;;;;17.77;67.22;100157.69;5053181;28;1556;-42
2021/12/10 08:12:18;;;;;;;;;;;;;;;17.71;67.22;100132.34;5046638;28;1635;-43
2021/12/10 08:14:52;;;;;;;;;;;;;;;17.86;66.89;100136.28;5049900;28;1997;-42
2021/12/10 08:17:30;;;;;;;;;;;;;;;17.70;67.07;100128.81;5051605;28;1494;-42
2021/12/10 08:20:19;;;;;;;;;;;;;;;17.72;67.66;100133.19;5041899;28;993;-42
2021/12/10 08:22:49;;;;;;;;;;;;;;;17.74;67.32;100133.88;5037137;28;1849;-42
2021/12/10 08:25:27;;;;;;;;;;;;;;;17.66;67.44;100114.03;5051854;28;2132;-43
2021/12/10 08:27:55;;;;;;;;;;;;;;;17.74;67.09;100132.06;5049312;28;1689;-42
2021/12/10 08:30:23;;;;;;;;;;;;;;;17.67;67.43;100131.78;5050471;28;1690;-42
2021/12/10 08:32:50;;;;;;;;;;;;;;;17.66;67.26;100132.75;5053547;28;1606;-42
2021/12/10 08:35:21;;;;;;;;;;;;;;;17.64;67.28;100140.06;5040119;28;1977;-43
2021/12/10 08:37:53;;;;;;;;;;;;;;;17.94;66.87;100135.56;5047678;28;1050;-42
2021/12/10 08:40:24;;;;;;;;;;;;;;;17.94;66.68;100126.72;5053797;28;1813;-43
2021/12/10 08:42:52;;;;;;;;;;;;;;;17.78;66.86;100120.06;5047897;28;1532;-42
2021/12/10 08:45:24;;;;;;;;;;;;;;;17.78;67.04;100132.63;5042806;28;1632;-42
2021/12/10 08:47:54;;;;;;;;;;;;;;;17.80;66.81;100131.47;5054487;28;1526;-42
2021/12/10 08:50:28;;;;;;;;;;;;;;;17.86;66.58;100133.59;5048140;28;1783;-43
2021/12/10 08:53:12;;;;;;;;;;;;;;;17.91;66.56;100132.38;5046675;28;1582;-43
2021/12/10 08:55:41;;;;;;;;;;;;;;;17.82;66.88;100137.53;5050475;28;1915;-42
2021/12/10 08:58:16;;;;;;;;;;;;;;;17.78;66.78;100128.09;5050901;28;1581;-43
2021/12/10 09:00:45;;;;;;;;;;;;;;;17.80;66.75;100134.16;5047252;28;1765;-42
2021/12/10 09:03:26;;;;;;;;;;;;;;;17.84;66.76;100132.91;5022534;28;2083;-43
2021/12/10 09:05:59;;;;;;;;;;;;;;;17.84;66.60;100100.81;5030347;28;1808;-43
2021/12/10 09:08:27;;;;;;;;;;;;;;;17.85;66.57;100110.53;5021587;28;1448;-43
2021/12/10 09:10:53;;;;;;;;;;;;;;;17.87;67.42;100110.41;5033732;28;1224;-42
2021/12/10 09:13:21;;;;;;;;;;;;;;;17.91;66.42;100116.31;5026520;28;1946;-43
2021/12/10 09:15:51;;;;;;;;;;;;;;;17.89;66.94;100114.59;5029614;28;1906;-42
2021/12/10 09:18:17;;;;;;;;;;;;;;;17.97;66.77;100102.34;5021282;28;1628;-43
2021/12/10 09:20:46;;;;;;;;;;;;;;;17.92;66.75;100101.94;5017132;28;2031;-43
2021/12/10 09:23:17;;;;;;;;;;;;;;;17.93;66.70;100108.97;5022486;28;1650;-42
2021/12/10 09:25:52;;;;;;;;;;;;;;;17.91;66.03;100094.91;5023316;28;1513;-43
2021/12/10 09:28:20;;;;;;;;;;;;;;;17.75;67.18;100104.34;5021753;28;1857;-42
2021/12/10 09:30:58;;;;;;;;;;;;;;;17.70;67.04;100095.88;5015064;28;2110;-43
2021/12/10 09:33:42;;;;;;;;;;;;;;;17.67;67.34;100098.88;5019940;28;1916;-42
2021/12/10 09:36:13;;;;;;;;;;;;;;;17.68;67.45;100095.19;5019395;28;1902;-42
2021/12/10 09:38:44;;;;;;;;;;;;;;;17.93;67.01;100098.28;5017685;28;1537;-42
2021/12/10 09:41:23;;;;;;;;;;;;;;;17.89;66.84;100098.56;5032327;28;1616;-43
2021/12/10 09:43:53;;;;;;;;;;;;;;;17.87;66.30;100079.13;5031850;28;1454;-43
2021/12/10 09:46:20;;;;;;;;;;;;;;;17.86;66.80;100077.44;5030082;28;2010;-43
2021/12/10 09:48:50;;;;;;;;;;;;;;;17.85;66.82;100090.97;5023720;28;1781;-43
2021/12/10 09:51:20;;;;;;;;;;;;;;;17.86;66.80;100082.78;5014477;28;2124;-43
2021/12/10 09:53:52;;;;;;;;;;;;;;;17.80;67.40;100087.84;5018885;28;1650;-42
2021/12/10 09:56:26;;;;;;;;;;;;;;;17.76;67.39;100076.59;5019517;28;1906;-43
2021/12/10 09:58:56;;;;;;;;;;;;;;;17.80;66.88;100069.97;5032164;28;1625;-42
2021/12/10 10:01:24;;;;;;;;;;;;;;;17.91;66.86;100074.34;5034679;28;2166;-42
2021/12/10 10:04:01;;;;;;;;;;;;;;;17.82;66.88;100068.00;5045449;28;1800;-42
2021/12/10 10:06:38;;;;;;;;;;;;;;;17.81;67.37;100073.50;5050194;28;1714;-42
2021/12/10 10:09:07;;;;;;;;;;;;;;;17.86;66.70;100066.75;5046139;28;2039;-42
2021/12/10 10:11:36;;;;;;;;;;;;;;;17.80;67.09;100051.25;5047674;28;1058;-42
2021/12/10 10:14:07;;;;;;;;;;;;;;;17.92;66.83;100027.88;5042897;28;1836;-42
2021/12/10 10:16:46;;;;;;;;;;;;;;;18.25;65.93;100023.78;5044834;28;2262;-42
2021/12/10 10:19:14;;;;;;;;;;;;;;;17.94;66.86;100019.72;5048203;28;1818;-42
2021/12/10 10:21:44;;;;;;;;;;;;;;;17.86;66.90;100018.59;5052601;28;1778;-42
2021/12/10 10:24:11;;;;;;;;;;;;;;;17.82;66.56;100014.50;5052306;28;2041;-44
2021/12/10 10:26:56;;;;;;;;;;;;;;;17.84;67.66;100009.88;5043512;28;1077;-43
2021/12/10 10:29:32;;;;;;;;;;;;;;;17.93;67.06;100010.00;5049380;28;1633;-44
2021/12/10 10:32:07;;;;;;;;;;;;;;;17.89;66.43;99993.41;5042630;28;1895;-43
2021/12/10 10:34:45;;;;;;;;;;;;;;;17.91;67.07;99987.91;5050757;28;1757;-43
2021/12/10 10:37:11;;;;;;;;;;;;;;;17.95;67.13;99978.59;5050969;28;1902;-43
2021/12/10 10:39:40;;;;;;;;;;;;;;;17.93;66.58;99993.97;5052032;28;1871;-43
2021/12/10 10:42:11;;;;;;;;;;;;;;;17.89;66.93;100001.44;5042326;28;1761;-43
2021/12/10 10:44:42;;;;;;;;;;;;;;;17.92;67.42;100022.53;5047680;28;1667;-43
2021/12/10 10:47:09;;;;;;;;;;;;;;;17.92;66.68;100003.78;5048752;28;1748;-43
2021/12/10 10:49:48;;;;;;;;;;;;;;;17.87;66.31;99998.91;5038588;28;1828;-43
2021/12/10 10:52:21;;;;;;;;;;;;;;;17.88;66.98;100010.44;5046305;28;2487;-43
2021/12/10 10:54:49;;;;;;;;;;;;;;;17.88;66.87;99991.72;5033307;28;2016;-43
2021/12/10 10:57:20;;;;;;;;;;;;;;;17.95;66.32;100022.25;5042344;28;1975;-43
2021/12/10 10:59:57;;;;;;;;;;;;;;;17.92;66.87;100021.69;5048598;28;1078;-43
2021/12/10 11:02:29;;;;;;;;;;;;;;;18.02;66.76;100007.28;5052741;28;1316;-41
2021/12/10 11:05:10;;;;;;;;;;;;;;;18.02;66.82;100001.91;5045086;28;1075;-42
2021/12/10 11:07:46;;;;;;;;;;;;;;;18.00;66.87;99992.38;5055527;28;1313;-41
2021/12/10 11:10:27;;;;;;;;;;;;;;;18.32;65.96;99985.72;5058222;28;1889;-40
2021/12/10 11:13:09;;;;;;;;;;;;;;;18.40;66.31;99993.84;5055334;28;1811;-40
2021/12/10 11:15:41;;;;;;;;;;;;;;;18.28;66.01;99994.06;5050734;28;2019;-42
2021/12/10 11:18:14;;;;;;;;;;;;;;;18.04;66.82;99985.72;5046857;28;1844;-41
2021/12/10 11:20:46;;;;;;;;;;;;;;;17.93;66.57;99969.88;5044441;28;1663;-42
2021/12/10 11:23:15;;;;;;;;;;;;;;;17.96;67.25;99969.56;5045843;28;1913;-41
2021/12/10 11:25:50;;;;;;;;;;;;;;;17.94;67.10;99977.75;5051370;28;1075;-41
2021/12/10 11:28:22;;;;;;;;;;;;;;;17.94;67.07;99961.69;5058497;28;1923;-41
2021/12/10 11:31:02;;;;;;;;;;;;;;;17.83;66.54;99937.81;5055227;28;1821;-42
2021/12/10 11:33:42;;;;;;;;;;;;;;;17.88;67.47;99965.78;5047948;28;1713;-41
2021/12/10 11:36:13;;;;;;;;;;;;;;;18.00;67.16;99976.31;5043757;28;2672;-42
2021/12/10 11:38:45;;;;;;;;;;;;;;;17.84;67.21;99988.47;5042824;28;2003;-41
2021/12/10 11:41:27;;;;;;;;;;;;;;;17.81;67.57;99985.25;5049462;28;1084;-42
2021/12/10 11:44:19;;;;;;;;;;;;;;;17.81;67.83;99982.56;5042889;28;2270;-41
2021/12/10 11:47:02;;;;;;;;;;;;;;;17.77;67.65;99967.81;5049991;28;1956;-41
2021/12/10 11:49:33;;;;;;;;;;;;;;;17.72;67.17;99954.88;5044533;28;1798;-41
2021/12/10 11:52:02;;;;;;;;;;;;;;;17.86;67.03;99962.44;5051347;28;1868;-41
2021/12/10 11:54:32;;;;;;;;;;;;;;;17.80;66.92;99963.00;5057398;28;1765;-41
2021/12/10 11:57:00;;;;;;;;;;;;;;;17.88;66.66;99973.00;5053829;28;1902;-42
2021/12/10 11:59:38;;;;;;;;;;;;;;;17.95;66.76;99987.47;5048134;28;1915;-41
2021/12/10 12:02:08;;;;;;;;;;;;;;;17.95;66.58;99983.97;5046964;28;1939;-42
2021/12/10 12:04:42;;;;;;;;;;;;;;;18.00;66.93;99976.31;5054638;28;2033;-42
2021/12/10 12:07:35;;;;;;;;;;;;;;;18.11;66.56;99984.16;5052013;28;1726;-42
2021/12/10 12:10:06;;;;;;;;;;;;;;;17.99;65.87;99994.22;5030616;28;1793;-42
2021/12/10 12:12:40;;;;;;;;;;;;;;;17.99;66.41;99988.84;5052000;28;1936;-42
2021/12/10 12:15:13;;;;;;;;;;;;;;;18.06;66.69;99987.28;5037515;28;1915;-42
2021/12/10 12:17:50;;;;;;;;;;;;;;;18.07;66.70;99977.41;5042614;28;1985;-42
2021/12/10 12:20:28;;;;;;;;;;;;;;;18.00;66.47;99976.31;5048136;28;1632;-42
2021/12/10 12:25:44;;;;;;;;;;;;;;;17.88;66.79;99948.91;5046349;28;1372;-42
2021/12/10 12:28:13;;;;;;;;;;;;;;;17.91;67.07;99945.13;5051456;28;1855;-41
2021/12/10 12:31:12;;;;;;;;;;;;;;;17.93;66.92;99933.28;5036705;28;1715;-42
2021/12/10 12:33:57;;;;;;;;;;;;;;;17.94;66.99;99934.13;5047700;28;1552;-42
2021/12/10 12:36:26;;;;;;;;;;;;;;;17.96;66.31;99926.78;5043598;28;1933;-42
2021/12/10 12:38:55;;;;;;;;;;;;;;;17.95;67.06;99923.28;5048343;28;1568;-42
2021/12/10 12:41:25;;;;;;;;;;;;;;;17.80;67.29;99906.00;5044096;28;1960;-41
2021/12/10 12:44:10;;;;;;;;;;;;;;;17.76;67.36;99910.78;5047947;28;1745;-41
2021/12/10 12:46:52;;;;;;;;;;;;;;;17.76;67.32;99899.25;5048344;28;1938;-41
2021/12/10 12:49:25;;;;;;;;;;;;;;;17.76;67.34;99900.09;5047742;28;1790;-41
2021/12/10 12:52:24;;;;;;;;;;;;;;;17.77;67.38;99896.44;5047818;28;1947;-41
2021/12/10 12:55:11;;;;;;;;;;;;;;;17.77;67.52;99903.63;5049894;28;1581;-41
2021/12/10 12:57:43;;;;;;;;;;;;;;;17.72;67.38;99904.06;5038035;28;2008;-41
2021/12/10 13:00:13;;;;;;;;;;;;;;;17.71;67.58;99902.38;5040671;28;1697;-41
2021/12/10 13:02:41;;;;;;;;;;;;;;;17.74;67.58;99912.78;5035770;28;1615;-42
2021/12/10 13:05:14;;;;;;;;;;;;;;;17.75;67.31;99922.50;5050726;28;1776;-41
2021/12/10 13:07:41;;;;;;;;;;;;;;;17.69;67.59;99899.03;5044033;28;2164;-41
2021/12/10 13:10:16;;;;;;;;;;;;;;;17.71;67.34;99913.09;5043302;28;1849;-42
2021/12/10 13:12:54;;;;;;;;;;;;;;;17.72;67.22;99924.63;5049693;28;1880;-41
2021/12/10 13:15:25;;;;;;;;;;;;;;;17.87;67.54;99929.34;5044991;28;1549;-41
2021/12/10 13:17:57;;;;;;;;;;;;;;;17.76;68.25;99886.72;5048731;28;1902;-42
2021/12/10 13:20:29;;;;;;;;;;;;;;;17.74;67.42;99896.72;5039314;28;1553;-42
2021/12/10 13:22:58;;;;;;;;;;;;;;;17.75;67.46;99919.81;5047015;28;1532;-42
2021/12/10 13:25:38;;;;;;;;;;;;;;;17.87;67.28;99945.41;5050276;28;1764;-41
2021/12/10 13:28:06;;;;;;;;;;;;;;;17.89;67.26;99966.66;5052057;28;1970;-42
2021/12/10 13:30:44;;;;;;;;;;;;;;;17.82;66.90;99947.63;5050281;28;1535;-41
2021/12/10 13:33:11;;;;;;;;;;;;;;;17.94;67.45;99963.53;5050263;28;1658;-41
2021/12/10 13:35:42;;;;;;;;;;;;;;;17.97;67.29;99964.09;5050078;28;1715;-41